sensor_id;sensor_type;location;lat;lon;timestamp;temperature;humidity
51739;DHT22;37815;52.692;6.226;2024-03-29T00:01:11;10.50;99.40
51739;DHT22;37815;52.692;6.226;2024-03-29T00:06:12;10.50;99.40
51739;DHT22;37815;52.692;6.226;2024-03-29T00:11:12;10.50;99.30
51739;DHT22;37815;52.692;6.226;2024-03-29T00:16:13;10.50;99.30
51739;DHT22;37815;52.692;6.226;2024-03-29T00:21:13;10.50;99.30
51739;DHT22;37815;52.692;6.226;2024-03-29T00:26:14;10.50;99.30
51739;DHT22;37815;52.692;6.226;2024-03-29T00:31:15;10.40;99.30
51739;DHT22;37815;52.692;6.226;2024-03-29T00:36:15;10.40;99.30
51739;DHT22;37815;52.692;6.226;2024-03-29T00:41:16;10.40;99.20
51739;DHT22;37815;52.692;6.226;2024-03-29T00:46:16;10.40;99.20
51739;DHT22;37815;52.692;6.226;2024-03-29T00:51:17;10.40;99.20
51739;DHT22;37815;52.692;6.226;2024-03-29T00:56:17;10.40;99.20
51739;DHT22;37815;52.692;6.226;2024-03-29T01:01:18;10.40;99.20
51739;DHT22;37815;52.692;6.226;2024-03-29T01:06:19;10.40;99.10
51739;DHT22;37815;52.692;6.226;2024-03-29T01:11:20;10.40;99.10
51739;DHT22;37815;52.692;6.226;2024-03-29T01:16:21;10.40;99.10
51739;DHT22;37815;52.692;6.226;2024-03-29T01:21:21;10.40;99.10
51739;DHT22;37815;52.692;6.226;2024-03-29T01:26:22;10.30;99.10
51739;DHT22;37815;52.692;6.226;2024-03-29T01:31:23;10.40;99.00
51739;DHT22;37815;52.692;6.226;2024-03-29T01:36:23;10.40;99.00
51739;DHT22;37815;52.692;6.226;2024-03-29T01:41:25;10.30;99.00
51739;DHT22;37815;52.692;6.226;2024-03-29T01:46:28;10.30;99.00
51739;DHT22;37815;52.692;6.226;2024-03-29T01:51:29;10.30;99.00
51739;DHT22;37815;52.692;6.226;2024-03-29T01:56:29;10.30;99.00
51739;DHT22;37815;52.692;6.226;2024-03-29T02:01:31;10.30;98.90
51739;DHT22;37815;52.692;6.226;2024-03-29T02:06:32;10.30;98.90
51739;DHT22;37815;52.692;6.226;2024-03-29T02:11:34;10.30;98.90
51739;DHT22;37815;52.692;6.226;2024-03-29T02:16:35;10.00;98.80
51739;DHT22;37815;52.692;6.226;2024-03-29T02:21:43;10.30;98.90
51739;DHT22;37815;52.692;6.226;2024-03-29T02:26:44;10.30;98.90
51739;DHT22;37815;52.692;6.226;2024-03-29T02:31:46;10.30;98.90
51739;DHT22;37815;52.692;6.226;2024-03-29T02:36:46;10.30;98.90
51739;DHT22;37815;52.692;6.226;2024-03-29T02:41:47;10.30;98.80
51739;DHT22;37815;52.692;6.226;2024-03-29T02:46:47;10.20;98.80
51739;DHT22;37815;52.692;6.226;2024-03-29T02:51:48;10.30;98.80
51739;DHT22;37815;52.692;6.226;2024-03-29T02:56:51;10.20;98.80
51739;DHT22;37815;52.692;6.226;2024-03-29T03:01:52;10.20;98.80
51739;DHT22;37815;52.692;6.226;2024-03-29T03:06:52;10.20;98.80
51739;DHT22;37815;52.692;6.226;2024-03-29T03:11:53;10.20;98.80
51739;DHT22;37815;52.692;6.226;2024-03-29T03:16:53;10.20;98.80
51739;DHT22;37815;52.692;6.226;2024-03-29T03:21:54;10.20;98.70
51739;DHT22;37815;52.692;6.226;2024-03-29T03:26:54;10.20;98.70
51739;DHT22;37815;52.692;6.226;2024-03-29T03:31:55;10.20;98.70
51739;DHT22;37815;52.692;6.226;2024-03-29T03:36:56;10.30;98.70
51739;DHT22;37815;52.692;6.226;2024-03-29T03:41:56;10.20;98.70
51739;DHT22;37815;52.692;6.226;2024-03-29T03:46:57;10.20;98.70
51739;DHT22;37815;52.692;6.226;2024-03-29T03:51:57;10.20;98.70
51739;DHT22;37815;52.692;6.226;2024-03-29T03:56:58;10.20;98.70
51739;DHT22;37815;52.692;6.226;2024-03-29T04:01:59;10.20;98.70
51739;DHT22;37815;52.692;6.226;2024-03-29T04:06:59;10.20;98.70
51739;DHT22;37815;52.692;6.226;2024-03-29T04:12:00;10.20;98.70
51739;DHT22;37815;52.692;6.226;2024-03-29T04:17:00;10.20;98.60
51739;DHT22;37815;52.692;6.226;2024-03-29T04:22:01;10.20;98.60
51739;DHT22;37815;52.692;6.226;2024-03-29T04:27:02;10.10;98.60
51739;DHT22;37815;52.692;6.226;2024-03-29T04:32:04;10.20;98.60
51739;DHT22;37815;52.692;6.226;2024-03-29T04:37:05;10.20;98.60
51739;DHT22;37815;52.692;6.226;2024-03-29T04:42:05;10.20;98.60
51739;DHT22;37815;52.692;6.226;2024-03-29T04:47:07;10.10;98.60
51739;DHT22;37815;52.692;6.226;2024-03-29T04:52:08;10.20;98.60
51739;DHT22;37815;52.692;6.226;2024-03-29T04:57:08;10.20;98.60
51739;DHT22;37815;52.692;6.226;2024-03-29T05:02:09;10.20;98.60
51739;DHT22;37815;52.692;6.226;2024-03-29T05:07:09;10.10;98.50
51739;DHT22;37815;52.692;6.226;2024-03-29T05:12:10;10.10;98.50
51739;DHT22;37815;52.692;6.226;2024-03-29T05:17:10;10.10;98.50
51739;DHT22;37815;52.692;6.226;2024-03-29T05:22:11;10.10;98.50
51739;DHT22;37815;52.692;6.226;2024-03-29T05:27:12;10.10;98.50
51739;DHT22;37815;52.692;6.226;2024-03-29T05:32:13;10.10;98.50
51739;DHT22;37815;52.692;6.226;2024-03-29T05:37:13;10.10;98.50
51739;DHT22;37815;52.692;6.226;2024-03-29T05:42:16;10.10;98.50
51739;DHT22;37815;52.692;6.226;2024-03-29T05:47:17;10.10;98.50
51739;DHT22;37815;52.692;6.226;2024-03-29T05:52:18;10.10;98.50
51739;DHT22;37815;52.692;6.226;2024-03-29T05:57:18;10.10;98.50
51739;DHT22;37815;52.692;6.226;2024-03-29T06:02:19;10.20;98.50
51739;DHT22;37815;52.692;6.226;2024-03-29T06:07:19;10.10;98.50
51739;DHT22;37815;52.692;6.226;2024-03-29T06:12:20;10.10;98.50
51739;DHT22;37815;52.692;6.226;2024-03-29T06:17:20;10.20;98.50
51739;DHT22;37815;52.692;6.226;2024-03-29T06:22:24;10.20;98.50
51739;DHT22;37815;52.692;6.226;2024-03-29T06:27:25;10.20;98.50
51739;DHT22;37815;52.692;6.226;2024-03-29T06:32:26;10.20;98.50
51739;DHT22;37815;52.692;6.226;2024-03-29T06:37:27;10.20;98.50
51739;DHT22;37815;52.692;6.226;2024-03-29T06:42:28;10.20;98.50
51739;DHT22;37815;52.692;6.226;2024-03-29T06:47:29;10.20;98.50
51739;DHT22;37815;52.692;6.226;2024-03-29T06:52:29;10.20;98.50
51739;DHT22;37815;52.692;6.226;2024-03-29T06:57:30;10.20;98.50
51739;DHT22;37815;52.692;6.226;2024-03-29T07:02:32;10.20;98.50
51739;DHT22;37815;52.692;6.226;2024-03-29T07:07:32;10.20;98.50
51739;DHT22;37815;52.692;6.226;2024-03-29T07:12:33;10.20;98.50
51739;DHT22;37815;52.692;6.226;2024-03-29T07:17:33;10.20;98.50
51739;DHT22;37815;52.692;6.226;2024-03-29T07:22:34;10.20;98.60
51739;DHT22;37815;52.692;6.226;2024-03-29T07:27:35;10.20;98.60
51739;DHT22;37815;52.692;6.226;2024-03-29T07:32:36;10.20;98.70
51739;DHT22;37815;52.692;6.226;2024-03-29T07:37:37;10.20;98.70
51739;DHT22;37815;52.692;6.226;2024-03-29T07:42:37;10.20;98.70
51739;DHT22;37815;52.692;6.226;2024-03-29T07:47:38;10.30;98.70
51739;DHT22;37815;52.692;6.226;2024-03-29T07:52:38;10.30;98.80
51739;DHT22;37815;52.692;6.226;2024-03-29T07:57:39;10.30;98.80
51739;DHT22;37815;52.692;6.226;2024-03-29T08:02:40;10.30;98.80
51739;DHT22;37815;52.692;6.226;2024-03-29T08:07:40;10.30;98.80
51739;DHT22;37815;52.692;6.226;2024-03-29T08:12:41;10.50;98.90
51739;DHT22;37815;52.692;6.226;2024-03-29T08:17:41;10.50;98.90
51739;DHT22;37815;52.692;6.226;2024-03-29T08:22:42;10.50;98.90
51739;DHT22;37815;52.692;6.226;2024-03-29T08:27:42;10.50;98.90
51739;DHT22;37815;52.692;6.226;2024-03-29T08:32:43;10.50;98.90
51739;DHT22;37815;52.692;6.226;2024-03-29T08:37:43;10.50;99.20
51739;DHT22;37815;52.692;6.226;2024-03-29T08:42:44;10.50;99.00
51739;DHT22;37815;52.692;6.226;2024-03-29T08:47:45;10.50;99.00
51739;DHT22;37815;52.692;6.226;2024-03-29T08:52:45;10.50;99.00
51739;DHT22;37815;52.692;6.226;2024-03-29T08:57:46;10.60;99.10
51739;DHT22;37815;52.692;6.226;2024-03-29T09:02:46;10.60;99.10
51739;DHT22;37815;52.692;6.226;2024-03-29T09:07:47;10.60;99.10
51739;DHT22;37815;52.692;6.226;2024-03-29T09:12:48;10.60;99.10
51739;DHT22;37815;52.692;6.226;2024-03-29T09:17:48;10.60;99.10
51739;DHT22;37815;52.692;6.226;2024-03-29T09:22:51;10.60;99.20
51739;DHT22;37815;52.692;6.226;2024-03-29T09:27:52;10.70;99.20
51739;DHT22;37815;52.692;6.226;2024-03-29T09:32:52;11.30;99.30
51739;DHT22;37815;52.692;6.226;2024-03-29T09:37:53;10.70;99.20
51739;DHT22;37815;52.692;6.226;2024-03-29T09:42:59;10.80;99.40
51739;DHT22;37815;52.692;6.226;2024-03-29T09:48:07;10.80;99.30
51739;DHT22;37815;52.692;6.226;2024-03-29T09:53:08;10.80;99.30
51739;DHT22;37815;52.692;6.226;2024-03-29T09:58:09;10.90;99.30
51739;DHT22;37815;52.692;6.226;2024-03-29T10:03:10;10.90;99.30
51739;DHT22;37815;52.692;6.226;2024-03-29T10:08:11;11.00;99.30
51739;DHT22;37815;52.692;6.226;2024-03-29T10:13:11;11.00;99.30
51739;DHT22;37815;52.692;6.226;2024-03-29T10:18:12;11.00;99.20
51739;DHT22;37815;52.692;6.226;2024-03-29T10:23:13;11.10;99.30
51739;DHT22;37815;52.692;6.226;2024-03-29T10:28:17;11.20;99.40
51739;DHT22;37815;52.692;6.226;2024-03-29T10:33:18;11.30;99.60
51739;DHT22;37815;52.692;6.226;2024-03-29T10:38:19;11.90;99.10
51739;DHT22;37815;52.692;6.226;2024-03-29T10:43:20;11.60;98.90
51739;DHT22;37815;52.692;6.226;2024-03-29T10:48:21;11.70;98.90
51739;DHT22;37815;52.692;6.226;2024-03-29T10:53:27;12.10;98.80
51739;DHT22;37815;52.692;6.226;2024-03-29T10:58:35;11.80;98.80
51739;DHT22;37815;52.692;6.226;2024-03-29T11:03:50;11.80;98.90
51739;DHT22;37815;52.692;6.226;2024-03-29T11:08:56;11.90;99.00
51739;DHT22;37815;52.692;6.226;2024-03-29T11:14:03;12.00;98.70
51739;DHT22;37815;52.692;6.226;2024-03-29T11:19:05;12.10;98.80
51739;DHT22;37815;52.692;6.226;2024-03-29T11:24:08;12.20;98.80
51739;DHT22;37815;52.692;6.226;2024-03-29T11:29:19;12.50;98.70
51739;DHT22;37815;52.692;6.226;2024-03-29T11:34:20;12.30;98.50
51739;DHT22;37815;52.692;6.226;2024-03-29T11:39:22;12.20;98.50
51739;DHT22;37815;52.692;6.226;2024-03-29T11:44:23;12.10;98.80
51739;DHT22;37815;52.692;6.226;2024-03-29T11:49:24;12.20;98.70
51739;DHT22;37815;52.692;6.226;2024-03-29T11:54:24;12.40;98.60
51739;DHT22;37815;52.692;6.226;2024-03-29T11:59:25;12.40;98.60
51739;DHT22;37815;52.692;6.226;2024-03-29T12:04:26;12.40;98.50
51739;DHT22;37815;52.692;6.226;2024-03-29T12:09:26;12.50;98.50
51739;DHT22;37815;52.692;6.226;2024-03-29T12:14:27;12.50;98.50
51739;DHT22;37815;52.692;6.226;2024-03-29T12:19:30;12.50;98.40
51739;DHT22;37815;52.692;6.226;2024-03-29T12:24:32;12.60;98.40
51739;DHT22;37815;52.692;6.226;2024-03-29T12:29:34;12.60;98.40
51739;DHT22;37815;52.692;6.226;2024-03-29T12:34:34;12.60;98.50
51739;DHT22;37815;52.692;6.226;2024-03-29T12:39:35;12.50;98.70
51739;DHT22;37815;52.692;6.226;2024-03-29T12:44:38;12.40;98.80
51739;DHT22;37815;52.692;6.226;2024-03-29T12:49:40;12.40;98.90
51739;DHT22;37815;52.692;6.226;2024-03-29T12:54:42;12.40;99.00
51739;DHT22;37815;52.692;6.226;2024-03-29T12:59:43;12.40;99.10
51739;DHT22;37815;52.692;6.226;2024-03-29T13:04:45;12.60;99.30
51739;DHT22;37815;52.692;6.226;2024-03-29T13:09:46;12.70;99.20
51739;DHT22;37815;52.692;6.226;2024-03-29T13:14:46;12.80;99.00
51739;DHT22;37815;52.692;6.226;2024-03-29T13:19:47;12.90;98.80
51739;DHT22;37815;52.692;6.226;2024-03-29T13:24:48;12.90;98.80
51739;DHT22;37815;52.692;6.226;2024-03-29T13:29:49;12.90;99.00
51739;DHT22;37815;52.692;6.226;2024-03-29T13:34:49;12.80;99.10
51739;DHT22;37815;52.692;6.226;2024-03-29T13:39:51;12.70;99.20
51739;DHT22;37815;52.692;6.226;2024-03-29T13:44:52;12.70;99.20
51739;DHT22;37815;52.692;6.226;2024-03-29T13:49:53;13.10;98.90
51739;DHT22;37815;52.692;6.226;2024-03-29T13:54:56;13.30;98.60
51739;DHT22;37815;52.692;6.226;2024-03-29T13:59:57;13.40;98.20
51739;DHT22;37815;52.692;6.226;2024-03-29T14:04:59;13.50;98.10
51739;DHT22;37815;52.692;6.226;2024-03-29T14:09:59;13.70;97.80
51739;DHT22;37815;52.692;6.226;2024-03-29T14:15:04;13.80;97.70
51739;DHT22;37815;52.692;6.226;2024-03-29T14:20:07;13.90;97.60
51739;DHT22;37815;52.692;6.226;2024-03-29T14:25:08;14.00;97.30
51739;DHT22;37815;52.692;6.226;2024-03-29T14:30:11;14.00;97.20
51739;DHT22;37815;52.692;6.226;2024-03-29T14:35:12;14.10;97.00
51739;DHT22;37815;52.692;6.226;2024-03-29T14:40:13;14.10;96.70
51739;DHT22;37815;52.692;6.226;2024-03-29T14:45:15;14.10;96.90
51739;DHT22;37815;52.692;6.226;2024-03-29T14:50:16;14.10;97.10
51739;DHT22;37815;52.692;6.226;2024-03-29T14:55:19;13.80;96.90
51739;DHT22;37815;52.692;6.226;2024-03-29T15:00:19;13.90;96.70
51739;DHT22;37815;52.692;6.226;2024-03-29T15:05:20;14.00;96.50
51739;DHT22;37815;52.692;6.226;2024-03-29T15:10:22;14.10;96.40
51739;DHT22;37815;52.692;6.226;2024-03-29T15:15:23;14.10;96.50
51739;DHT22;37815;52.692;6.226;2024-03-29T15:20:24;14.10;96.60
51739;DHT22;37815;52.692;6.226;2024-03-29T15:25:24;14.10;96.60
51739;DHT22;37815;52.692;6.226;2024-03-29T15:30:27;14.10;96.60
51739;DHT22;37815;52.692;6.226;2024-03-29T15:35:28;14.00;96.50
51739;DHT22;37815;52.692;6.226;2024-03-29T15:40:28;14.00;96.70
51739;DHT22;37815;52.692;6.226;2024-03-29T15:45:29;14.00;96.70
51739;DHT22;37815;52.692;6.226;2024-03-29T15:50:29;13.80;96.80
51739;DHT22;37815;52.692;6.226;2024-03-29T15:55:31;13.80;97.00
51739;DHT22;37815;52.692;6.226;2024-03-29T16:00:31;13.80;97.10
51739;DHT22;37815;52.692;6.226;2024-03-29T16:05:33;13.70;97.30
51739;DHT22;37815;52.692;6.226;2024-03-29T16:10:37;13.70;97.40
51739;DHT22;37815;52.692;6.226;2024-03-29T16:15:50;14.00;97.60
51739;DHT22;37815;52.692;6.226;2024-03-29T16:20:58;13.60;97.70
51739;DHT22;37815;52.692;6.226;2024-03-29T16:25:59;13.60;97.80
51739;DHT22;37815;52.692;6.226;2024-03-29T16:30:59;13.60;97.90
51739;DHT22;37815;52.692;6.226;2024-03-29T16:36:00;13.60;98.00
51739;DHT22;37815;52.692;6.226;2024-03-29T16:41:01;13.50;98.00
51739;DHT22;37815;52.692;6.226;2024-03-29T16:46:01;13.60;98.10
51739;DHT22;37815;52.692;6.226;2024-03-29T16:51:02;13.60;98.10
51739;DHT22;37815;52.692;6.226;2024-03-29T16:56:02;13.60;98.20
51739;DHT22;37815;52.692;6.226;2024-03-29T17:01:03;13.50;98.30
51739;DHT22;37815;52.692;6.226;2024-03-29T17:06:04;13.50;98.30
51739;DHT22;37815;52.692;6.226;2024-03-29T17:11:05;13.50;98.40
51739;DHT22;37815;52.692;6.226;2024-03-29T17:16:05;13.40;98.40
51739;DHT22;37815;52.692;6.226;2024-03-29T17:21:06;13.50;98.50
51739;DHT22;37815;52.692;6.226;2024-03-29T17:26:07;13.50;98.60
51739;DHT22;37815;52.692;6.226;2024-03-29T17:31:07;13.40;98.60
51739;DHT22;37815;52.692;6.226;2024-03-29T17:36:08;13.50;98.80
51739;DHT22;37815;52.692;6.226;2024-03-29T17:41:09;13.50;98.80
51739;DHT22;37815;52.692;6.226;2024-03-29T17:46:09;13.50;98.90
51739;DHT22;37815;52.692;6.226;2024-03-29T17:51:11;13.40;98.90
51739;DHT22;37815;52.692;6.226;2024-03-29T17:56:12;13.50;99.00
51739;DHT22;37815;52.692;6.226;2024-03-29T18:01:13;13.40;99.10
51739;DHT22;37815;52.692;6.226;2024-03-29T18:06:14;13.30;99.10
51739;DHT22;37815;52.692;6.226;2024-03-29T18:11:15;13.40;99.20
51739;DHT22;37815;52.692;6.226;2024-03-29T18:16:16;13.30;99.20
51739;DHT22;37815;52.692;6.226;2024-03-29T18:21:16;13.40;99.50
51739;DHT22;37815;52.692;6.226;2024-03-29T18:26:17;13.70;99.90
51739;DHT22;37815;52.692;6.226;2024-03-29T18:31:18;13.60;99.90
51739;DHT22;37815;52.692;6.226;2024-03-29T18:36:18;13.60;99.90
51739;DHT22;37815;52.692;6.226;2024-03-29T18:41:19;13.70;99.90
51739;DHT22;37815;52.692;6.226;2024-03-29T18:46:23;13.60;99.90
51739;DHT22;37815;52.692;6.226;2024-03-29T18:51:23;13.50;99.90
51739;DHT22;37815;52.692;6.226;2024-03-29T18:56:24;13.40;99.90
51739;DHT22;37815;52.692;6.226;2024-03-29T19:01:25;13.40;99.90
51739;DHT22;37815;52.692;6.226;2024-03-29T19:06:27;13.40;99.90
51739;DHT22;37815;52.692;6.226;2024-03-29T19:11:31;13.40;99.90
51739;DHT22;37815;52.692;6.226;2024-03-29T19:16:32;13.30;99.90
51739;DHT22;37815;52.692;6.226;2024-03-29T19:21:35;13.30;99.90
51739;DHT22;37815;52.692;6.226;2024-03-29T19:26:38;13.20;99.90
51739;DHT22;37815;52.692;6.226;2024-03-29T19:31:39;13.20;99.90
51739;DHT22;37815;52.692;6.226;2024-03-29T19:36:41;13.20;99.90
51739;DHT22;37815;52.692;6.226;2024-03-29T19:41:42;13.10;99.90
51739;DHT22;37815;52.692;6.226;2024-03-29T19:46:43;13.10;99.90
51739;DHT22;37815;52.692;6.226;2024-03-29T19:51:45;13.10;99.90
51739;DHT22;37815;52.692;6.226;2024-03-29T19:56:45;13.10;99.90
51739;DHT22;37815;52.692;6.226;2024-03-29T20:01:46;13.30;99.90
51739;DHT22;37815;52.692;6.226;2024-03-29T20:06:46;13.10;99.90
51739;DHT22;37815;52.692;6.226;2024-03-29T20:11:47;13.10;99.90
51739;DHT22;37815;52.692;6.226;2024-03-29T20:16:48;13.00;99.90
51739;DHT22;37815;52.692;6.226;2024-03-29T20:21:49;13.00;99.90
51739;DHT22;37815;52.692;6.226;2024-03-29T20:26:49;13.10;99.90
51739;DHT22;37815;52.692;6.226;2024-03-29T20:31:50;13.10;99.90
51739;DHT22;37815;52.692;6.226;2024-03-29T20:36:53;12.90;99.90
51739;DHT22;37815;52.692;6.226;2024-03-29T20:41:54;12.90;99.90
51739;DHT22;37815;52.692;6.226;2024-03-29T20:46:54;12.90;99.90
51739;DHT22;37815;52.692;6.226;2024-03-29T20:51:55;12.90;99.90
51739;DHT22;37815;52.692;6.226;2024-03-29T20:56:56;12.80;99.90
51739;DHT22;37815;52.692;6.226;2024-03-29T21:01:57;12.80;99.90
51739;DHT22;37815;52.692;6.226;2024-03-29T21:07:16;12.80;99.90
51739;DHT22;37815;52.692;6.226;2024-03-29T21:12:16;12.80;99.90
51739;DHT22;37815;52.692;6.226;2024-03-29T21:17:17;12.80;99.90
51739;DHT22;37815;52.692;6.226;2024-03-29T21:22:18;12.80;99.90
51739;DHT22;37815;52.692;6.226;2024-03-29T21:27:18;12.80;99.90
51739;DHT22;37815;52.692;6.226;2024-03-29T21:32:19;12.70;99.90
51739;DHT22;37815;52.692;6.226;2024-03-29T21:37:20;12.70;99.90
51739;DHT22;37815;52.692;6.226;2024-03-29T21:42:21;12.70;99.90
51739;DHT22;37815;52.692;6.226;2024-03-29T21:47:22;12.80;99.90
51739;DHT22;37815;52.692;6.226;2024-03-29T21:52:23;12.80;99.90
51739;DHT22;37815;52.692;6.226;2024-03-29T21:57:24;12.70;99.90
51739;DHT22;37815;52.692;6.226;2024-03-29T22:02:25;12.70;99.90
51739;DHT22;37815;52.692;6.226;2024-03-29T22:07:25;12.60;99.90
51739;DHT22;37815;52.692;6.226;2024-03-29T22:12:26;12.60;99.90
51739;DHT22;37815;52.692;6.226;2024-03-29T22:17:28;12.60;99.90
51739;DHT22;37815;52.692;6.226;2024-03-29T22:22:29;12.60;99.90
51739;DHT22;37815;52.692;6.226;2024-03-29T22:27:29;12.60;99.90
51739;DHT22;37815;52.692;6.226;2024-03-29T22:32:30;12.60;99.90
51739;DHT22;37815;52.692;6.226;2024-03-29T22:37:31;12.60;99.90
51739;DHT22;37815;52.692;6.226;2024-03-29T22:42:31;12.60;99.90
51739;DHT22;37815;52.692;6.226;2024-03-29T22:47:32;12.60;99.90
51739;DHT22;37815;52.692;6.226;2024-03-29T22:52:32;12.50;99.90
51739;DHT22;37815;52.692;6.226;2024-03-29T22:57:33;12.80;99.90
51739;DHT22;37815;52.692;6.226;2024-03-29T23:02:34;12.50;99.90
51739;DHT22;37815;52.692;6.226;2024-03-29T23:07:34;12.50;99.90
51739;DHT22;37815;52.692;6.226;2024-03-29T23:12:36;12.50;99.90
51739;DHT22;37815;52.692;6.226;2024-03-29T23:17:36;12.50;99.90
51739;DHT22;37815;52.692;6.226;2024-03-29T23:22:38;12.50;99.90
51739;DHT22;37815;52.692;6.226;2024-03-29T23:27:39;12.60;99.90
51739;DHT22;37815;52.692;6.226;2024-03-29T23:32:40;12.50;99.90
51739;DHT22;37815;52.692;6.226;2024-03-29T23:37:40;12.50;99.90
51739;DHT22;37815;52.692;6.226;2024-03-29T23:42:41;12.50;99.90
51739;DHT22;37815;52.692;6.226;2024-03-29T23:47:42;12.50;99.90
51739;DHT22;37815;52.692;6.226;2024-03-29T23:52:42;12.40;99.90
51739;DHT22;37815;52.692;6.226;2024-03-29T23:57:45;12.50;99.90
